sensor_id;sensor_type;location;lat;lon;timestamp;temperature;humidity
20722;DHT22;10522;52.198;9.890;2023-06-22T00:00:50;18.10;99.90
20722;DHT22;10522;52.198;9.890;2023-06-22T00:03:18;18.00;99.90
20722;DHT22;10522;52.198;9.890;2023-06-22T00:05:44;18.00;99.90
20722;DHT22;10522;52.198;9.890;2023-06-22T00:08:10;18.00;99.90
20722;DHT22;10522;52.198;9.890;2023-06-22T00:10:36;18.00;99.90
20722;DHT22;10522;52.198;9.890;2023-06-22T00:13:01;18.00;99.90
20722;DHT22;10522;52.198;9.890;2023-06-22T00:15:27;17.90;99.90
20722;DHT22;10522;52.198;9.890;2023-06-22T00:17:53;17.90;99.90
20722;DHT22;10522;52.198;9.890;2023-06-22T00:20:19;17.90;99.90
20722;DHT22;10522;52.198;9.890;2023-06-22T00:22:45;17.80;99.90
20722;DHT22;10522;52.198;9.890;2023-06-22T00:25:11;17.90;99.90
20722;DHT22;10522;52.198;9.890;2023-06-22T00:27:37;17.80;99.90
20722;DHT22;10522;52.198;9.890;2023-06-22T00:30:03;17.70;99.90
20722;DHT22;10522;52.198;9.890;2023-06-22T00:32:29;17.80;99.90
20722;DHT22;10522;52.198;9.890;2023-06-22T00:34:55;17.80;99.90
20722;DHT22;10522;52.198;9.890;2023-06-22T00:37:21;17.80;99.90
20722;DHT22;10522;52.198;9.890;2023-06-22T00:39:51;17.90;99.90
20722;DHT22;10522;52.198;9.890;2023-06-22T00:42:17;17.80;99.90
20722;DHT22;10522;52.198;9.890;2023-06-22T00:44:43;17.40;99.90
20722;DHT22;10522;52.198;9.890;2023-06-22T00:47:11;17.20;99.90
20722;DHT22;10522;52.198;9.890;2023-06-22T00:49:38;16.90;99.90
20722;DHT22;10522;52.198;9.890;2023-06-22T00:52:05;16.90;99.90
20722;DHT22;10522;52.198;9.890;2023-06-22T00:54:35;16.80;99.90
20722;DHT22;10522;52.198;9.890;2023-06-22T00:57:01;16.80;99.90
20722;DHT22;10522;52.198;9.890;2023-06-22T00:59:27;16.70;99.90
20722;DHT22;10522;52.198;9.890;2023-06-22T01:01:53;16.90;99.90
20722;DHT22;10522;52.198;9.890;2023-06-22T01:04:19;17.10;99.90
20722;DHT22;10522;52.198;9.890;2023-06-22T01:06:54;16.90;99.90
20722;DHT22;10522;52.198;9.890;2023-06-22T01:09:27;16.90;99.90
20722;DHT22;10522;52.198;9.890;2023-06-22T01:12:03;16.90;99.90
20722;DHT22;10522;52.198;9.890;2023-06-22T01:14:43;16.90;99.90
20722;DHT22;10522;52.198;9.890;2023-06-22T01:17:13;16.80;99.90
20722;DHT22;10522;52.198;9.890;2023-06-22T01:19:48;16.90;99.90
20722;DHT22;10522;52.198;9.890;2023-06-22T01:22:24;16.90;99.90
20722;DHT22;10522;52.198;9.890;2023-06-22T01:25:22;17.10;99.90
20722;DHT22;10522;52.198;9.890;2023-06-22T01:30:18;17.20;99.90
20722;DHT22;10522;52.198;9.890;2023-06-22T01:32:46;17.20;99.90
20722;DHT22;10522;52.198;9.890;2023-06-22T01:35:12;17.20;99.90
20722;DHT22;10522;52.198;9.890;2023-06-22T01:37:38;17.30;99.90
20722;DHT22;10522;52.198;9.890;2023-06-22T01:40:05;17.30;99.90
20722;DHT22;10522;52.198;9.890;2023-06-22T01:42:32;17.20;99.90
20722;DHT22;10522;52.198;9.890;2023-06-22T01:44:59;17.30;99.90
20722;DHT22;10522;52.198;9.890;2023-06-22T01:47:25;17.30;99.90
20722;DHT22;10522;52.198;9.890;2023-06-22T01:49:53;17.20;99.90
20722;DHT22;10522;52.198;9.890;2023-06-22T01:52:19;17.20;99.90
20722;DHT22;10522;52.198;9.890;2023-06-22T01:54:46;16.90;99.90
20722;DHT22;10522;52.198;9.890;2023-06-22T01:57:12;17.00;99.90
20722;DHT22;10522;52.198;9.890;2023-06-22T02:02:11;17.20;99.90
20722;DHT22;10522;52.198;9.890;2023-06-22T02:04:48;17.30;99.90
20722;DHT22;10522;52.198;9.890;2023-06-22T02:07:18;17.40;99.90
20722;DHT22;10522;52.198;9.890;2023-06-22T02:09:47;17.30;99.90
20722;DHT22;10522;52.198;9.890;2023-06-22T02:12:18;17.40;99.90
20722;DHT22;10522;52.198;9.890;2023-06-22T02:14:45;17.40;99.90
20722;DHT22;10522;52.198;9.890;2023-06-22T02:17:12;17.30;99.90
20722;DHT22;10522;52.198;9.890;2023-06-22T02:19:38;17.30;99.90
20722;DHT22;10522;52.198;9.890;2023-06-22T02:22:06;17.40;99.90
20722;DHT22;10522;52.198;9.890;2023-06-22T02:24:32;17.40;99.90
20722;DHT22;10522;52.198;9.890;2023-06-22T02:26:59;16.60;99.90
20722;DHT22;10522;52.198;9.890;2023-06-22T02:29:25;16.50;99.90
20722;DHT22;10522;52.198;9.890;2023-06-22T02:31:52;16.60;99.90
20722;DHT22;10522;52.198;9.890;2023-06-22T02:34:18;16.40;99.90
20722;DHT22;10522;52.198;9.890;2023-06-22T02:36:48;16.40;99.90
20722;DHT22;10522;52.198;9.890;2023-06-22T02:39:26;16.40;99.90
20722;DHT22;10522;52.198;9.890;2023-06-22T02:41:53;16.40;99.90
20722;DHT22;10522;52.198;9.890;2023-06-22T02:44:19;16.40;99.90
20722;DHT22;10522;52.198;9.890;2023-06-22T02:46:45;16.50;99.90
20722;DHT22;10522;52.198;9.890;2023-06-22T02:49:11;16.40;99.90
20722;DHT22;10522;52.198;9.890;2023-06-22T02:51:45;16.50;99.90
20722;DHT22;10522;52.198;9.890;2023-06-22T02:54:11;16.60;99.90
20722;DHT22;10522;52.198;9.890;2023-06-22T02:56:37;16.50;99.90
20722;DHT22;10522;52.198;9.890;2023-06-22T02:59:03;16.60;99.90
20722;DHT22;10522;52.198;9.890;2023-06-22T03:01:29;16.60;99.90
20722;DHT22;10522;52.198;9.890;2023-06-22T03:03:58;16.70;99.90
20722;DHT22;10522;52.198;9.890;2023-06-22T03:06:24;16.80;99.90
20722;DHT22;10522;52.198;9.890;2023-06-22T03:09:01;16.90;99.90
20722;DHT22;10522;52.198;9.890;2023-06-22T03:11:28;17.00;99.90
20722;DHT22;10522;52.198;9.890;2023-06-22T03:13:58;17.10;99.90
20722;DHT22;10522;52.198;9.890;2023-06-22T03:16:23;17.20;99.90
20722;DHT22;10522;52.198;9.890;2023-06-22T03:18:49;17.00;99.90
20722;DHT22;10522;52.198;9.890;2023-06-22T03:21:15;17.00;99.90
20722;DHT22;10522;52.198;9.890;2023-06-22T03:23:42;17.00;99.90
20722;DHT22;10522;52.198;9.890;2023-06-22T03:26:09;17.00;99.90
20722;DHT22;10522;52.198;9.890;2023-06-22T03:28:34;17.10;99.90
20722;DHT22;10522;52.198;9.890;2023-06-22T03:31:00;16.90;99.90
20722;DHT22;10522;52.198;9.890;2023-06-22T03:33:25;17.10;99.90
20722;DHT22;10522;52.198;9.890;2023-06-22T03:35:51;17.20;99.90
20722;DHT22;10522;52.198;9.890;2023-06-22T03:38:17;17.20;99.90
20722;DHT22;10522;52.198;9.890;2023-06-22T03:40:43;17.40;99.90
20722;DHT22;10522;52.198;9.890;2023-06-22T03:43:08;17.40;99.90
20722;DHT22;10522;52.198;9.890;2023-06-22T03:45:34;17.40;99.90
20722;DHT22;10522;52.198;9.890;2023-06-22T03:48:00;17.40;99.90
20722;DHT22;10522;52.198;9.890;2023-06-22T03:50:26;17.40;99.90
20722;DHT22;10522;52.198;9.890;2023-06-22T03:52:52;17.60;99.90
20722;DHT22;10522;52.198;9.890;2023-06-22T03:55:19;17.70;99.90
20722;DHT22;10522;52.198;9.890;2023-06-22T03:57:45;17.70;99.90
20722;DHT22;10522;52.198;9.890;2023-06-22T04:00:11;17.80;99.90
20722;DHT22;10522;52.198;9.890;2023-06-22T04:02:37;17.80;99.90
20722;DHT22;10522;52.198;9.890;2023-06-22T04:05:04;17.70;99.90
20722;DHT22;10522;52.198;9.890;2023-06-22T04:07:29;17.80;99.90
20722;DHT22;10522;52.198;9.890;2023-06-22T04:09:55;17.90;99.90
20722;DHT22;10522;52.198;9.890;2023-06-22T04:12:20;17.90;99.90
20722;DHT22;10522;52.198;9.890;2023-06-22T04:14:46;18.00;99.90
20722;DHT22;10522;52.198;9.890;2023-06-22T04:17:12;18.00;99.90
20722;DHT22;10522;52.198;9.890;2023-06-22T04:19:39;18.00;99.90
20722;DHT22;10522;52.198;9.890;2023-06-22T04:22:05;18.10;99.90
20722;DHT22;10522;52.198;9.890;2023-06-22T04:24:32;18.10;99.90
20722;DHT22;10522;52.198;9.890;2023-06-22T04:26:58;18.10;99.90
20722;DHT22;10522;52.198;9.890;2023-06-22T04:29:31;18.20;99.90
20722;DHT22;10522;52.198;9.890;2023-06-22T04:31:57;18.30;99.90
20722;DHT22;10522;52.198;9.890;2023-06-22T04:34:31;18.20;99.90
20722;DHT22;10522;52.198;9.890;2023-06-22T04:36:57;18.30;99.90
20722;DHT22;10522;52.198;9.890;2023-06-22T04:39:23;18.40;99.90
20722;DHT22;10522;52.198;9.890;2023-06-22T04:41:49;18.40;99.90
20722;DHT22;10522;52.198;9.890;2023-06-22T04:44:19;18.60;99.90
20722;DHT22;10522;52.198;9.890;2023-06-22T04:46:58;18.60;99.90
20722;DHT22;10522;52.198;9.890;2023-06-22T04:49:29;18.70;99.90
20722;DHT22;10522;52.198;9.890;2023-06-22T04:51:59;18.70;99.90
20722;DHT22;10522;52.198;9.890;2023-06-22T04:54:25;18.70;99.90
20722;DHT22;10522;52.198;9.890;2023-06-22T04:56:51;18.70;99.90
20722;DHT22;10522;52.198;9.890;2023-06-22T04:59:31;18.70;99.90
20722;DHT22;10522;52.198;9.890;2023-06-22T05:01:59;18.80;99.90
20722;DHT22;10522;52.198;9.890;2023-06-22T05:04:26;18.90;99.90
20722;DHT22;10522;52.198;9.890;2023-06-22T05:06:53;18.90;99.90
20722;DHT22;10522;52.198;9.890;2023-06-22T05:09:20;18.90;99.90
20722;DHT22;10522;52.198;9.890;2023-06-22T05:11:46;19.00;99.90
20722;DHT22;10522;52.198;9.890;2023-06-22T05:14:12;19.10;99.90
20722;DHT22;10522;52.198;9.890;2023-06-22T05:16:38;19.30;99.90
20722;DHT22;10522;52.198;9.890;2023-06-22T05:19:05;19.50;99.90
20722;DHT22;10522;52.198;9.890;2023-06-22T05:21:31;19.50;99.90
20722;DHT22;10522;52.198;9.890;2023-06-22T05:23:57;19.50;99.90
20722;DHT22;10522;52.198;9.890;2023-06-22T05:26:26;19.50;99.90
20722;DHT22;10522;52.198;9.890;2023-06-22T05:28:53;19.60;99.90
20722;DHT22;10522;52.198;9.890;2023-06-22T05:31:18;19.70;99.90
20722;DHT22;10522;52.198;9.890;2023-06-22T05:33:45;19.70;99.90
20722;DHT22;10522;52.198;9.890;2023-06-22T05:36:11;19.70;99.90
20722;DHT22;10522;52.198;9.890;2023-06-22T05:38:38;20.00;99.90
20722;DHT22;10522;52.198;9.890;2023-06-22T05:41:04;20.00;99.90
20722;DHT22;10522;52.198;9.890;2023-06-22T05:43:30;20.00;99.90
20722;DHT22;10522;52.198;9.890;2023-06-22T05:45:55;20.10;99.90
20722;DHT22;10522;52.198;9.890;2023-06-22T05:48:21;20.10;99.90
20722;DHT22;10522;52.198;9.890;2023-06-22T05:50:47;20.10;99.90
20722;DHT22;10522;52.198;9.890;2023-06-22T05:53:12;20.10;99.90
20722;DHT22;10522;52.198;9.890;2023-06-22T05:55:38;20.20;99.90
20722;DHT22;10522;52.198;9.890;2023-06-22T05:58:03;20.30;99.90
20722;DHT22;10522;52.198;9.890;2023-06-22T06:00:29;20.30;99.90
20722;DHT22;10522;52.198;9.890;2023-06-22T06:02:55;20.40;99.90
20722;DHT22;10522;52.198;9.890;2023-06-22T06:05:21;20.60;99.90
20722;DHT22;10522;52.198;9.890;2023-06-22T06:07:46;20.60;99.90
20722;DHT22;10522;52.198;9.890;2023-06-22T06:10:12;20.70;99.90
20722;DHT22;10522;52.198;9.890;2023-06-22T06:12:38;20.70;99.90
20722;DHT22;10522;52.198;9.890;2023-06-22T06:15:04;20.70;99.90
20722;DHT22;10522;52.198;9.890;2023-06-22T06:17:31;21.00;99.90
20722;DHT22;10522;52.198;9.890;2023-06-22T06:19:58;21.10;99.90
20722;DHT22;10522;52.198;9.890;2023-06-22T06:22:24;21.00;99.90
20722;DHT22;10522;52.198;9.890;2023-06-22T06:24:49;21.00;99.90
20722;DHT22;10522;52.198;9.890;2023-06-22T06:27:15;21.00;99.90
20722;DHT22;10522;52.198;9.890;2023-06-22T06:29:43;20.90;99.90
20722;DHT22;10522;52.198;9.890;2023-06-22T06:32:11;21.00;99.90
20722;DHT22;10522;52.198;9.890;2023-06-22T06:34:36;21.00;99.90
20722;DHT22;10522;52.198;9.890;2023-06-22T06:37:02;21.10;99.90
20722;DHT22;10522;52.198;9.890;2023-06-22T06:39:28;21.30;99.90
20722;DHT22;10522;52.198;9.890;2023-06-22T06:41:53;21.30;99.90
20722;DHT22;10522;52.198;9.890;2023-06-22T06:44:19;21.40;99.90
20722;DHT22;10522;52.198;9.890;2023-06-22T06:46:44;21.60;99.90
20722;DHT22;10522;52.198;9.890;2023-06-22T06:49:10;21.70;99.90
20722;DHT22;10522;52.198;9.890;2023-06-22T06:51:36;21.80;99.90
20722;DHT22;10522;52.198;9.890;2023-06-22T06:54:02;22.00;99.90
20722;DHT22;10522;52.198;9.890;2023-06-22T06:56:28;22.00;99.90
20722;DHT22;10522;52.198;9.890;2023-06-22T06:58:55;21.90;99.90
20722;DHT22;10522;52.198;9.890;2023-06-22T07:01:21;22.10;99.90
20722;DHT22;10522;52.198;9.890;2023-06-22T07:03:47;22.20;99.90
20722;DHT22;10522;52.198;9.890;2023-06-22T07:06:13;22.40;99.90
20722;DHT22;10522;52.198;9.890;2023-06-22T07:08:39;22.40;99.90
20722;DHT22;10522;52.198;9.890;2023-06-22T07:11:05;22.40;99.90
20722;DHT22;10522;52.198;9.890;2023-06-22T07:13:31;22.40;99.90
20722;DHT22;10522;52.198;9.890;2023-06-22T07:15:56;22.50;99.90
20722;DHT22;10522;52.198;9.890;2023-06-22T07:18:22;22.60;99.90
20722;DHT22;10522;52.198;9.890;2023-06-22T07:20:47;22.50;99.90
20722;DHT22;10522;52.198;9.890;2023-06-22T07:23:14;22.80;99.90
20722;DHT22;10522;52.198;9.890;2023-06-22T07:25:39;22.90;99.90
20722;DHT22;10522;52.198;9.890;2023-06-22T07:28:06;23.00;99.90
20722;DHT22;10522;52.198;9.890;2023-06-22T07:30:32;23.00;99.90
20722;DHT22;10522;52.198;9.890;2023-06-22T07:32:59;23.10;99.90
20722;DHT22;10522;52.198;9.890;2023-06-22T07:35:29;22.90;99.90
20722;DHT22;10522;52.198;9.890;2023-06-22T07:37:54;22.80;99.90
20722;DHT22;10522;52.198;9.890;2023-06-22T07:40:20;22.80;99.90
20722;DHT22;10522;52.198;9.890;2023-06-22T07:42:46;22.80;99.90
20722;DHT22;10522;52.198;9.890;2023-06-22T07:45:13;22.80;99.90
20722;DHT22;10522;52.198;9.890;2023-06-22T07:47:39;22.80;99.90
20722;DHT22;10522;52.198;9.890;2023-06-22T07:50:06;22.70;99.90
20722;DHT22;10522;52.198;9.890;2023-06-22T07:52:32;22.70;99.90
20722;DHT22;10522;52.198;9.890;2023-06-22T07:54:57;22.80;99.90
20722;DHT22;10522;52.198;9.890;2023-06-22T07:57:23;22.70;99.90
20722;DHT22;10522;52.198;9.890;2023-06-22T07:59:57;22.80;99.90
20722;DHT22;10522;52.198;9.890;2023-06-22T08:02:23;22.60;99.90
20722;DHT22;10522;52.198;9.890;2023-06-22T08:04:49;22.70;99.90
20722;DHT22;10522;52.198;9.890;2023-06-22T08:07:14;22.60;99.90
20722;DHT22;10522;52.198;9.890;2023-06-22T08:09:46;22.70;99.90
20722;DHT22;10522;52.198;9.890;2023-06-22T08:12:12;22.80;99.90
20722;DHT22;10522;52.198;9.890;2023-06-22T08:14:38;22.80;99.90
20722;DHT22;10522;52.198;9.890;2023-06-22T08:17:04;22.70;99.90
20722;DHT22;10522;52.198;9.890;2023-06-22T08:19:30;22.50;99.90
20722;DHT22;10522;52.198;9.890;2023-06-22T08:21:56;22.60;99.90
20722;DHT22;10522;52.198;9.890;2023-06-22T08:24:22;22.70;99.90
20722;DHT22;10522;52.198;9.890;2023-06-22T08:26:51;22.90;99.90
20722;DHT22;10522;52.198;9.890;2023-06-22T08:29:16;22.70;99.90
20722;DHT22;10522;52.198;9.890;2023-06-22T08:31:42;22.80;99.90
20722;DHT22;10522;52.198;9.890;2023-06-22T08:34:08;23.00;99.90
20722;DHT22;10522;52.198;9.890;2023-06-22T08:36:39;23.00;99.90
20722;DHT22;10522;52.198;9.890;2023-06-22T08:39:18;22.80;99.90
20722;DHT22;10522;52.198;9.890;2023-06-22T08:41:47;22.90;99.90
20722;DHT22;10522;52.198;9.890;2023-06-22T08:44:13;22.80;99.90
20722;DHT22;10522;52.198;9.890;2023-06-22T08:46:39;22.70;99.90
20722;DHT22;10522;52.198;9.890;2023-06-22T08:49:06;22.80;99.90
20722;DHT22;10522;52.198;9.890;2023-06-22T08:51:32;22.90;99.90
20722;DHT22;10522;52.198;9.890;2023-06-22T08:53:58;22.90;99.90
20722;DHT22;10522;52.198;9.890;2023-06-22T08:56:23;22.90;99.90
20722;DHT22;10522;52.198;9.890;2023-06-22T08:58:49;22.80;99.90
20722;DHT22;10522;52.198;9.890;2023-06-22T09:01:16;22.90;99.90
20722;DHT22;10522;52.198;9.890;2023-06-22T09:03:42;22.90;99.90
20722;DHT22;10522;52.198;9.890;2023-06-22T09:06:08;22.90;99.90
20722;DHT22;10522;52.198;9.890;2023-06-22T09:08:39;23.00;99.90
20722;DHT22;10522;52.198;9.890;2023-06-22T09:11:04;23.00;99.90
20722;DHT22;10522;52.198;9.890;2023-06-22T09:13:31;23.10;99.90
20722;DHT22;10522;52.198;9.890;2023-06-22T09:15:58;23.30;99.90
20722;DHT22;10522;52.198;9.890;2023-06-22T09:18:26;23.40;99.90
20722;DHT22;10522;52.198;9.890;2023-06-22T09:20:52;23.80;99.90
20722;DHT22;10522;52.198;9.890;2023-06-22T09:23:17;24.00;99.90
20722;DHT22;10522;52.198;9.890;2023-06-22T09:25:43;24.10;99.90
20722;DHT22;10522;52.198;9.890;2023-06-22T09:28:09;24.20;99.90
20722;DHT22;10522;52.198;9.890;2023-06-22T09:30:35;24.20;99.90
20722;DHT22;10522;52.198;9.890;2023-06-22T09:33:04;24.30;99.90
20722;DHT22;10522;52.198;9.890;2023-06-22T09:35:30;24.20;99.90
20722;DHT22;10522;52.198;9.890;2023-06-22T09:37:56;24.20;99.90
20722;DHT22;10522;52.198;9.890;2023-06-22T09:40:46;24.20;99.90
20722;DHT22;10522;52.198;9.890;2023-06-22T09:43:11;24.20;99.90
20722;DHT22;10522;52.198;9.890;2023-06-22T09:45:37;24.20;99.90
20722;DHT22;10522;52.198;9.890;2023-06-22T09:48:03;24.30;99.90
20722;DHT22;10522;52.198;9.890;2023-06-22T09:50:28;24.50;99.90
20722;DHT22;10522;52.198;9.890;2023-06-22T09:52:54;24.60;99.90
20722;DHT22;10522;52.198;9.890;2023-06-22T09:55:23;24.70;99.90
20722;DHT22;10522;52.198;9.890;2023-06-22T09:57:49;24.90;99.90
20722;DHT22;10522;52.198;9.890;2023-06-22T10:00:17;25.10;99.90
20722;DHT22;10522;52.198;9.890;2023-06-22T10:02:44;25.30;99.90
20722;DHT22;10522;52.198;9.890;2023-06-22T10:05:09;25.40;99.90
20722;DHT22;10522;52.198;9.890;2023-06-22T10:07:35;25.20;99.90
20722;DHT22;10522;52.198;9.890;2023-06-22T10:10:09;25.00;99.90
20722;DHT22;10522;52.198;9.890;2023-06-22T10:12:41;25.20;99.90
20722;DHT22;10522;52.198;9.890;2023-06-22T10:15:08;25.10;99.90
20722;DHT22;10522;52.198;9.890;2023-06-22T10:17:37;25.00;99.90
20722;DHT22;10522;52.198;9.890;2023-06-22T10:20:06;25.00;99.90
20722;DHT22;10522;52.198;9.890;2023-06-22T10:22:42;25.10;99.90
20722;DHT22;10522;52.198;9.890;2023-06-22T10:25:10;25.40;99.90
20722;DHT22;10522;52.198;9.890;2023-06-22T10:27:39;25.40;99.90
20722;DHT22;10522;52.198;9.890;2023-06-22T10:30:09;25.30;99.90
20722;DHT22;10522;52.198;9.890;2023-06-22T10:32:35;25.40;99.90
20722;DHT22;10522;52.198;9.890;2023-06-22T10:35:15;25.20;99.90
20722;DHT22;10522;52.198;9.890;2023-06-22T10:38:10;25.10;99.90
20722;DHT22;10522;52.198;9.890;2023-06-22T10:40:36;25.10;99.90
20722;DHT22;10522;52.198;9.890;2023-06-22T10:43:07;25.20;99.90
20722;DHT22;10522;52.198;9.890;2023-06-22T10:45:36;25.30;99.90
20722;DHT22;10522;52.198;9.890;2023-06-22T10:48:02;25.40;99.90
20722;DHT22;10522;52.198;9.890;2023-06-22T10:50:28;25.40;99.90
20722;DHT22;10522;52.198;9.890;2023-06-22T10:52:54;25.60;99.90
20722;DHT22;10522;52.198;9.890;2023-06-22T10:55:19;25.40;99.90
20722;DHT22;10522;52.198;9.890;2023-06-22T10:57:46;25.40;99.90
20722;DHT22;10522;52.198;9.890;2023-06-22T11:00:15;25.50;99.90
20722;DHT22;10522;52.198;9.890;2023-06-22T11:02:45;25.60;99.90
20722;DHT22;10522;52.198;9.890;2023-06-22T11:05:16;25.80;99.90
20722;DHT22;10522;52.198;9.890;2023-06-22T11:07:44;25.80;99.90
20722;DHT22;10522;52.198;9.890;2023-06-22T11:10:10;25.90;99.90
20722;DHT22;10522;52.198;9.890;2023-06-22T11:12:36;26.30;99.90
20722;DHT22;10522;52.198;9.890;2023-06-22T11:15:01;27.00;99.90
20722;DHT22;10522;52.198;9.890;2023-06-22T11:17:27;27.50;99.90
20722;DHT22;10522;52.198;9.890;2023-06-22T11:19:53;27.90;99.90
20722;DHT22;10522;52.198;9.890;2023-06-22T11:22:18;28.00;99.90
20722;DHT22;10522;52.198;9.890;2023-06-22T11:24:44;27.90;99.90
20722;DHT22;10522;52.198;9.890;2023-06-22T11:27:17;28.30;99.90
20722;DHT22;10522;52.198;9.890;2023-06-22T11:29:42;28.50;99.90
20722;DHT22;10522;52.198;9.890;2023-06-22T11:32:09;28.70;99.90
20722;DHT22;10522;52.198;9.890;2023-06-22T11:34:34;28.90;99.90
20722;DHT22;10522;52.198;9.890;2023-06-22T11:37:00;28.30;99.90
20722;DHT22;10522;52.198;9.890;2023-06-22T11:39:26;28.30;99.90
20722;DHT22;10522;52.198;9.890;2023-06-22T11:41:52;28.10;99.90
20722;DHT22;10522;52.198;9.890;2023-06-22T11:44:18;28.00;99.90
20722;DHT22;10522;52.198;9.890;2023-06-22T11:46:44;27.90;99.90
20722;DHT22;10522;52.198;9.890;2023-06-22T11:49:09;28.10;99.90
20722;DHT22;10522;52.198;9.890;2023-06-22T11:51:35;28.00;99.90
20722;DHT22;10522;52.198;9.890;2023-06-22T11:54:00;28.00;99.90
20722;DHT22;10522;52.198;9.890;2023-06-22T11:56:27;28.00;99.90
20722;DHT22;10522;52.198;9.890;2023-06-22T11:58:53;28.00;99.90
20722;DHT22;10522;52.198;9.890;2023-06-22T12:01:19;28.70;99.90
20722;DHT22;10522;52.198;9.890;2023-06-22T12:03:45;28.60;99.90
20722;DHT22;10522;52.198;9.890;2023-06-22T12:06:10;28.90;99.90
20722;DHT22;10522;52.198;9.890;2023-06-22T12:08:37;28.80;99.90
20722;DHT22;10522;52.198;9.890;2023-06-22T12:11:02;29.20;99.90
20722;DHT22;10522;52.198;9.890;2023-06-22T12:13:28;29.30;99.90
20722;DHT22;10522;52.198;9.890;2023-06-22T12:15:53;30.10;99.90
20722;DHT22;10522;52.198;9.890;2023-06-22T12:18:20;30.60;99.90
20722;DHT22;10522;52.198;9.890;2023-06-22T12:20:47;30.50;99.90
20722;DHT22;10522;52.198;9.890;2023-06-22T12:23:12;29.90;99.90
20722;DHT22;10522;52.198;9.890;2023-06-22T12:25:39;29.60;99.90
20722;DHT22;10522;52.198;9.890;2023-06-22T12:28:04;29.20;99.90
20722;DHT22;10522;52.198;9.890;2023-06-22T12:30:30;28.70;99.90
20722;DHT22;10522;52.198;9.890;2023-06-22T12:32:56;28.20;99.90
20722;DHT22;10522;52.198;9.890;2023-06-22T12:35:21;28.00;99.90
20722;DHT22;10522;52.198;9.890;2023-06-22T12:37:47;27.90;99.90
20722;DHT22;10522;52.198;9.890;2023-06-22T12:40:13;27.90;99.90
20722;DHT22;10522;52.198;9.890;2023-06-22T12:42:39;27.90;99.90
20722;DHT22;10522;52.198;9.890;2023-06-22T12:45:05;27.70;99.90
20722;DHT22;10522;52.198;9.890;2023-06-22T12:47:31;27.70;99.90
20722;DHT22;10522;52.198;9.890;2023-06-22T12:49:57;27.90;99.90
20722;DHT22;10522;52.198;9.890;2023-06-22T12:52:22;28.50;99.90
20722;DHT22;10522;52.198;9.890;2023-06-22T12:54:48;28.90;99.90
20722;DHT22;10522;52.198;9.890;2023-06-22T12:57:14;29.00;99.90
20722;DHT22;10522;52.198;9.890;2023-06-22T12:59:39;29.30;99.90
20722;DHT22;10522;52.198;9.890;2023-06-22T13:02:05;29.20;99.90
20722;DHT22;10522;52.198;9.890;2023-06-22T13:04:31;29.10;99.90
20722;DHT22;10522;52.198;9.890;2023-06-22T13:06:56;29.10;99.90
20722;DHT22;10522;52.198;9.890;2023-06-22T13:09:22;29.00;99.90
20722;DHT22;10522;52.198;9.890;2023-06-22T13:11:48;28.60;99.90
20722;DHT22;10522;52.198;9.890;2023-06-22T13:14:13;28.50;99.90
20722;DHT22;10522;52.198;9.890;2023-06-22T13:16:39;28.20;99.90
20722;DHT22;10522;52.198;9.890;2023-06-22T13:19:04;28.20;99.90
20722;DHT22;10522;52.198;9.890;2023-06-22T13:21:31;28.10;99.90
20722;DHT22;10522;52.198;9.890;2023-06-22T13:23:59;28.00;99.90
20722;DHT22;10522;52.198;9.890;2023-06-22T13:26:25;27.80;99.90
20722;DHT22;10522;52.198;9.890;2023-06-22T13:28:50;27.60;99.90
20722;DHT22;10522;52.198;9.890;2023-06-22T13:31:17;27.50;99.90
20722;DHT22;10522;52.198;9.890;2023-06-22T13:33:43;27.40;99.90
20722;DHT22;10522;52.198;9.890;2023-06-22T13:36:10;27.40;99.90
20722;DHT22;10522;52.198;9.890;2023-06-22T13:38:36;27.30;99.90
20722;DHT22;10522;52.198;9.890;2023-06-22T13:41:05;27.20;99.90
20722;DHT22;10522;52.198;9.890;2023-06-22T13:43:31;27.00;99.90
20722;DHT22;10522;52.198;9.890;2023-06-22T13:45:57;26.90;99.90
20722;DHT22;10522;52.198;9.890;2023-06-22T13:48:24;26.80;99.90
20722;DHT22;10522;52.198;9.890;2023-06-22T13:50:51;26.60;99.90
20722;DHT22;10522;52.198;9.890;2023-06-22T13:53:17;26.60;99.90
20722;DHT22;10522;52.198;9.890;2023-06-22T13:55:43;26.40;99.90
20722;DHT22;10522;52.198;9.890;2023-06-22T13:58:08;26.30;99.90
20722;DHT22;10522;52.198;9.890;2023-06-22T14:00:34;26.10;99.90
20722;DHT22;10522;52.198;9.890;2023-06-22T14:02:59;25.90;99.90
20722;DHT22;10522;52.198;9.890;2023-06-22T14:05:25;25.70;99.90
20722;DHT22;10522;52.198;9.890;2023-06-22T14:07:51;25.60;99.90
20722;DHT22;10522;52.198;9.890;2023-06-22T14:10:17;25.60;99.90
20722;DHT22;10522;52.198;9.890;2023-06-22T14:12:43;25.50;99.90
20722;DHT22;10522;52.198;9.890;2023-06-22T14:15:08;25.50;99.90
20722;DHT22;10522;52.198;9.890;2023-06-22T14:17:35;25.50;99.90
20722;DHT22;10522;52.198;9.890;2023-06-22T14:20:01;25.60;99.90
20722;DHT22;10522;52.198;9.890;2023-06-22T14:22:27;25.70;99.90
20722;DHT22;10522;52.198;9.890;2023-06-22T14:24:54;25.80;99.90
20722;DHT22;10522;52.198;9.890;2023-06-22T14:27:21;26.00;99.90
20722;DHT22;10522;52.198;9.890;2023-06-22T14:29:46;26.30;99.90
20722;DHT22;10522;52.198;9.890;2023-06-22T14:32:12;26.40;99.90
20722;DHT22;10522;52.198;9.890;2023-06-22T14:34:38;26.70;99.90
20722;DHT22;10522;52.198;9.890;2023-06-22T14:37:06;26.90;99.90
20722;DHT22;10522;52.198;9.890;2023-06-22T14:39:32;27.00;99.90
20722;DHT22;10522;52.198;9.890;2023-06-22T14:41:58;26.90;99.90
20722;DHT22;10522;52.198;9.890;2023-06-22T14:44:26;26.90;99.90
20722;DHT22;10522;52.198;9.890;2023-06-22T14:46:56;26.80;99.90
20722;DHT22;10522;52.198;9.890;2023-06-22T14:49:22;26.50;99.90
20722;DHT22;10522;52.198;9.890;2023-06-22T14:51:48;26.20;99.90
20722;DHT22;10522;52.198;9.890;2023-06-22T14:54:14;26.10;99.90
20722;DHT22;10522;52.198;9.890;2023-06-22T14:56:42;25.90;99.90
20722;DHT22;10522;52.198;9.890;2023-06-22T14:59:09;25.80;99.90
20722;DHT22;10522;52.198;9.890;2023-06-22T15:01:44;25.70;99.90
20722;DHT22;10522;52.198;9.890;2023-06-22T15:04:10;25.50;99.90
20722;DHT22;10522;52.198;9.890;2023-06-22T15:06:35;25.40;99.90
20722;DHT22;10522;52.198;9.890;2023-06-22T15:09:01;25.20;99.90
20722;DHT22;10522;52.198;9.890;2023-06-22T15:11:28;25.00;99.90
20722;DHT22;10522;52.198;9.890;2023-06-22T15:19:52;24.70;99.90
20722;DHT22;10522;52.198;9.890;2023-06-22T15:22:20;24.50;99.90
20722;DHT22;10522;52.198;9.890;2023-06-22T15:24:46;24.40;99.90
20722;DHT22;10522;52.198;9.890;2023-06-22T15:27:13;24.20;99.90
20722;DHT22;10522;52.198;9.890;2023-06-22T15:29:39;24.10;99.90
20722;DHT22;10522;52.198;9.890;2023-06-22T15:32:07;24.00;99.90
20722;DHT22;10522;52.198;9.890;2023-06-22T15:34:32;23.60;99.90
20722;DHT22;10522;52.198;9.890;2023-06-22T15:36:59;23.40;99.90
20722;DHT22;10522;52.198;9.890;2023-06-22T15:39:25;22.90;99.90